createdAt,value
2019-05-20T00:02:53.828Z,12.90
2019-05-20T00:06:00.861Z,12.88
2019-05-20T00:09:07.365Z,12.90
2019-05-20T00:12:13.770Z,12.83
2019-05-20T00:15:20.225Z,12.85
2019-05-20T00:18:26.993Z,12.79
2019-05-20T00:21:33.478Z,12.77
2019-05-20T00:24:40.130Z,12.71
2019-05-20T00:27:46.597Z,12.73
2019-05-20T00:30:52.978Z,12.66
2019-05-20T00:33:59.254Z,12.65
2019-05-20T00:37:05.743Z,12.66
2019-05-20T00:40:12.143Z,12.61
2019-05-20T00:43:18.931Z,12.56
2019-05-20T00:46:25.322Z,12.52
2019-05-20T00:49:31.803Z,12.58
2019-05-20T00:52:38.156Z,12.62
2019-05-20T00:55:44.578Z,12.63
2019-05-20T00:58:50.969Z,12.63
2019-05-20T01:01:57.437Z,12.55
2019-05-20T01:05:04.210Z,12.50
2019-05-20T01:08:10.714Z,12.50
2019-05-20T01:11:18.121Z,12.49
2019-05-20T01:14:24.668Z,12.47
2019-05-20T01:17:30.978Z,12.45
2019-05-20T01:20:37.528Z,12.42
2019-05-20T01:23:43.938Z,12.42
2019-05-20T01:26:50.634Z,12.38
2019-05-20T01:29:57.006Z,12.36
2019-05-20T01:33:13.213Z,12.36
2019-05-20T01:36:11.568Z,12.33
2019-05-20T01:39:18.181Z,12.29
2019-05-20T01:42:24.609Z,12.27
2019-05-20T01:45:30.920Z,12.26
2019-05-20T01:48:37.308Z,12.25
2019-05-20T01:51:43.971Z,12.23
2019-05-20T01:54:50.525Z,12.23
2019-05-20T01:57:57.004Z,12.23
2019-05-20T02:01:03.416Z,12.03
2019-05-20T02:04:09.941Z,12.23
2019-05-20T02:07:17.173Z,12.19
2019-05-20T02:10:24.081Z,12.20
2019-05-20T02:13:52.397Z,12.21
2019-05-20T02:17:02.384Z,12.14
2019-05-20T02:20:07.254Z,12.14
2019-05-20T02:23:16.572Z,12.17
2019-05-20T02:26:22.999Z,12.15
2019-05-20T02:29:29.734Z,12.22
2019-05-20T02:32:36.189Z,12.19
2019-05-20T02:35:42.632Z,12.19
2019-05-20T02:38:49.060Z,12.21
2019-05-20T02:41:55.538Z,12.21
2019-05-20T02:45:01.998Z,12.21
2019-05-20T02:48:08.641Z,12.22
2019-05-20T02:51:16.669Z,12.22
2019-05-20T02:54:23.119Z,12.20
2019-05-20T02:57:29.492Z,12.14
2019-05-20T03:00:35.996Z,12.19
2019-05-20T03:03:42.364Z,12.12
2019-05-20T03:06:49.056Z,12.18
2019-05-20T03:09:56.071Z,12.21
2019-05-20T03:13:02.607Z,12.23
2019-05-20T03:16:08.944Z,12.21
2019-05-20T03:19:15.493Z,12.20
2019-05-20T03:22:21.904Z,12.19
2019-05-20T03:25:28.533Z,12.21
2019-05-20T03:28:34.919Z,12.21
2019-05-20T03:31:41.613Z,12.23
2019-05-20T03:34:58.807Z,12.25
2019-05-20T03:37:58.415Z,12.26
2019-05-20T03:41:04.902Z,12.23
2019-05-20T03:44:11.721Z,12.23
2019-05-20T03:47:18.086Z,12.29
2019-05-20T03:50:24.489Z,12.26
2019-05-20T03:53:30.977Z,12.25
2019-05-20T03:56:37.587Z,12.27
2019-05-20T03:59:43.971Z,12.27
2019-05-20T04:02:51.388Z,12.25
2019-05-20T04:05:57.832Z,12.27
2019-05-20T04:09:05.347Z,12.28
2019-05-20T04:12:12.162Z,12.29
2019-05-20T04:15:18.731Z,12.29
2019-05-20T04:18:26.707Z,12.35
2019-05-20T04:21:33.505Z,12.35
2019-05-20T04:24:39.936Z,12.36
2019-05-20T04:27:46.357Z,12.38
2019-05-20T04:30:52.839Z,12.39
2019-05-20T04:33:59.392Z,12.41
2019-05-20T04:37:05.798Z,12.43
2019-05-20T04:40:12.229Z,12.44
2019-05-20T04:43:18.642Z,12.46
2019-05-20T04:46:25.091Z,12.47
2019-05-20T04:49:31.493Z,12.48
2019-05-20T04:52:37.965Z,12.50
2019-05-20T04:55:45.424Z,12.48
2019-05-20T04:58:51.997Z,12.46
2019-05-20T05:01:58.369Z,12.46
2019-05-20T05:05:05.224Z,12.60
2019-05-20T05:08:11.599Z,12.60
2019-05-20T05:11:18.567Z,12.61
2019-05-20T05:14:25.310Z,12.65
2019-05-20T05:17:32.268Z,12.68
2019-05-20T05:20:38.851Z,12.70
2019-05-20T05:23:58.346Z,12.73
2019-05-20T05:26:53.685Z,12.78
2019-05-20T05:30:00.109Z,12.81
2019-05-20T05:33:06.499Z,12.83
2019-05-20T05:36:13.249Z,12.87
2019-05-20T05:39:19.801Z,12.89
2019-05-20T05:42:26.266Z,12.91
2019-05-20T05:45:33.409Z,12.97
2019-05-20T05:48:39.950Z,13.02
2019-05-20T05:51:46.466Z,13.02
2019-05-20T05:54:53.143Z,13.05
2019-05-20T05:57:59.570Z,13.10
2019-05-20T06:01:06.120Z,13.18
2019-05-20T06:04:12.603Z,13.18
2019-05-20T06:07:19.042Z,13.21
2019-05-20T06:10:25.545Z,13.21
2019-05-20T06:13:32.055Z,13.25
2019-05-20T06:16:38.893Z,13.27
2019-05-20T06:19:45.593Z,13.29
2019-05-20T06:22:51.988Z,13.32
2019-05-20T06:26:00.150Z,13.36
2019-05-20T06:29:06.719Z,13.41
2019-05-20T06:32:13.165Z,13.44
2019-05-20T06:35:19.561Z,13.49
2019-05-20T06:38:42.850Z,13.50
2019-05-20T06:41:49.289Z,13.57
2019-05-20T06:44:57.361Z,13.66
2019-05-20T06:48:04.974Z,13.68
2019-05-20T06:51:11.519Z,13.71
2019-05-20T06:54:17.922Z,13.77
2019-05-20T06:57:25.465Z,13.85
2019-05-20T07:00:37.040Z,13.85
2019-05-20T07:03:43.466Z,13.86
2019-05-20T07:06:50.122Z,13.89
2019-05-20T07:09:56.524Z,13.95
2019-05-20T07:13:03.007Z,14.03
2019-05-20T07:16:10.497Z,14.03
2019-05-20T07:19:17.186Z,14.07
2019-05-20T07:22:23.916Z,14.16
2019-05-20T07:25:30.329Z,14.16
2019-05-20T07:28:37.218Z,14.19
2019-05-20T07:31:43.647Z,14.26
2019-05-20T07:34:50.039Z,14.38
2019-05-20T07:37:56.640Z,14.37
2019-05-20T07:41:03.124Z,14.38
2019-05-20T07:44:09.546Z,14.47
2019-05-20T07:47:15.993Z,14.64
2019-05-20T07:50:22.410Z,14.68
2019-05-20T07:53:29.609Z,14.82
2019-05-20T07:56:39.065Z,14.82
2019-05-20T07:59:46.665Z,14.87
2019-05-20T08:02:53.031Z,14.96
2019-05-20T08:06:00.132Z,15.08
2019-05-20T08:09:08.166Z,15.21
2019-05-20T08:12:14.686Z,15.32
2019-05-20T08:15:22.026Z,15.45
2019-05-20T08:18:28.652Z,15.52
2019-05-20T08:21:35.284Z,15.74
2019-05-20T08:24:42.057Z,15.78
2019-05-20T08:27:48.487Z,15.92
2019-05-20T08:30:55.726Z,16.00
2019-05-20T08:34:03.044Z,16.06
2019-05-20T08:37:09.735Z,16.14
2019-05-20T08:40:16.373Z,16.24
2019-05-20T08:43:23.350Z,16.33
2019-05-20T08:46:31.021Z,16.46
2019-05-20T08:49:37.615Z,16.61
2019-05-20T08:52:44.419Z,16.80
2019-05-20T08:55:50.924Z,16.82
2019-05-20T08:58:57.892Z,16.85
2019-05-20T09:02:04.667Z,17.12
2019-05-20T09:05:11.207Z,17.23
2019-05-20T09:08:17.881Z,17.30
2019-05-20T09:11:24.344Z,17.41
2019-05-20T09:14:30.981Z,17.61
2019-05-20T09:17:39.068Z,17.73
2019-05-20T09:20:46.254Z,17.90
2019-05-20T09:23:52.814Z,18.05
2019-05-20T09:27:06.057Z,18.12
2019-05-20T09:30:14.231Z,18.28
2019-05-20T09:33:21.036Z,18.46
2019-05-20T09:36:27.387Z,18.66
2019-05-20T09:39:33.915Z,18.93
2019-05-20T09:42:41.235Z,19.07
2019-05-20T09:46:04.133Z,18.95
2019-05-20T09:48:56.249Z,19.25
2019-05-20T09:52:02.927Z,19.46
2019-05-20T09:55:09.555Z,19.56
2019-05-20T09:58:16.074Z,19.56
2019-05-20T10:01:22.521Z,19.58
2019-05-20T10:04:29.038Z,19.64
2019-05-20T10:07:35.417Z,19.69
2019-05-20T10:10:42.014Z,19.92
2019-05-20T10:13:48.492Z,19.99
2019-05-20T10:16:55.336Z,20.30
2019-05-20T10:20:01.835Z,20.40
2019-05-20T10:23:08.572Z,20.31
2019-05-20T10:26:16.310Z,20.29
2019-05-20T10:29:22.984Z,20.33
2019-05-20T10:32:29.433Z,20.44
2019-05-20T10:35:35.990Z,20.49
2019-05-20T10:38:57.286Z,20.64
2019-05-20T10:41:50.627Z,20.70
2019-05-20T10:44:59.510Z,21.06
2019-05-20T10:48:08.856Z,21.06
2019-05-20T10:51:15.149Z,21.09
2019-05-20T10:54:22.022Z,21.15
2019-05-20T10:57:28.466Z,21.60
2019-05-20T11:00:35.136Z,21.71
2019-05-20T11:03:41.585Z,21.90
2019-05-20T11:06:48.017Z,22.10
2019-05-20T11:09:54.458Z,22.25
2019-05-20T11:13:01.384Z,22.43
2019-05-20T11:16:07.713Z,22.43
2019-05-20T11:19:14.258Z,22.73
2019-05-20T11:22:20.728Z,22.79
2019-05-20T11:25:27.400Z,22.87
2019-05-20T11:28:34.085Z,23.15
2019-05-20T11:31:40.994Z,23.25
2019-05-20T11:34:47.600Z,23.32
2019-05-20T11:37:54.237Z,23.42
2019-05-20T11:41:00.693Z,23.42
2019-05-20T11:44:07.211Z,23.34
2019-05-20T11:47:13.661Z,23.89
2019-05-20T11:50:20.396Z,24.01
2019-05-20T11:53:26.967Z,24.09
2019-05-20T11:56:33.395Z,24.21
2019-05-20T11:59:39.880Z,24.43
2019-05-20T12:02:46.466Z,24.63
2019-05-20T12:05:52.964Z,24.75
2019-05-20T12:08:59.468Z,24.74
2019-05-20T12:12:05.903Z,24.63
2019-05-20T12:15:12.385Z,24.89
2019-05-20T12:18:18.798Z,25.13
2019-05-20T12:21:25.222Z,25.24
2019-05-20T12:24:31.608Z,25.42
2019-05-20T12:27:38.290Z,25.37
2019-05-20T12:30:45.319Z,25.47
2019-05-20T12:33:52.975Z,25.53
2019-05-20T12:36:59.423Z,25.58
2019-05-20T12:40:07.858Z,25.64
2019-05-20T12:43:14.538Z,25.74
2019-05-20T12:46:21.249Z,25.75
2019-05-20T12:49:27.917Z,25.98
2019-05-20T12:52:34.551Z,26.20
2019-05-20T12:55:41.021Z,26.28
2019-05-20T12:58:47.494Z,26.43
2019-05-20T13:01:53.949Z,26.36
2019-05-20T13:05:01.680Z,26.13
2019-05-20T13:08:08.572Z,26.16
2019-05-20T13:11:15.167Z,26.16
2019-05-20T13:14:21.678Z,25.89
2019-05-20T13:17:28.223Z,25.86
2019-05-20T13:20:34.658Z,25.82
2019-05-20T13:23:41.663Z,25.72
2019-05-20T13:26:48.173Z,25.75
2019-05-20T13:29:54.752Z,25.67
2019-05-20T13:33:01.826Z,25.65
2019-05-20T13:36:08.595Z,25.66
2019-05-20T13:39:15.050Z,25.76
2019-05-20T13:42:23.663Z,25.84
2019-05-20T13:45:32.278Z,25.91
2019-05-20T13:48:57.432Z,26.00
2019-05-20T13:52:01.990Z,26.00
2019-05-20T13:55:09.827Z,26.04
2019-05-20T13:58:16.526Z,26.09
2019-05-20T14:01:24.076Z,26.13
2019-05-20T14:04:30.586Z,26.13
2019-05-20T14:07:37.225Z,26.38
2019-05-20T14:10:43.697Z,26.44
2019-05-20T14:13:51.627Z,26.57
2019-05-20T14:17:03.427Z,26.66
2019-05-20T14:20:13.253Z,26.62
2019-05-20T14:23:22.101Z,26.53
2019-05-20T14:26:31.859Z,26.71
2019-05-20T14:29:38.314Z,26.58
2019-05-20T14:32:46.088Z,26.56
2019-05-20T14:35:52.976Z,26.60
2019-05-20T14:38:59.833Z,26.54
2019-05-20T14:42:06.260Z,26.66
2019-05-20T14:45:12.929Z,26.64
2019-05-20T14:48:19.401Z,26.36
2019-05-20T14:51:25.926Z,26.36
2019-05-20T14:54:32.413Z,26.32
2019-05-20T14:57:39.083Z,26.35
2019-05-20T15:00:45.518Z,26.34
2019-05-20T15:03:54.857Z,26.39
2019-05-20T15:07:04.986Z,26.39
2019-05-20T15:10:11.740Z,26.18
2019-05-20T15:13:18.240Z,26.05
2019-05-20T15:16:25.900Z,26.00
2019-05-20T15:19:32.275Z,26.01
2019-05-20T15:22:38.973Z,25.97
2019-05-20T15:25:45.564Z,25.95
2019-05-20T15:28:51.975Z,25.84
2019-05-20T15:31:58.678Z,26.03
2019-05-20T15:35:05.308Z,25.87
2019-05-20T15:38:13.081Z,25.84
2019-05-20T15:41:19.618Z,25.73
2019-05-20T15:44:25.974Z,25.72
2019-05-20T15:47:32.450Z,25.69
2019-05-20T15:50:38.884Z,25.54
2019-05-20T15:53:45.447Z,25.54
2019-05-20T15:56:51.873Z,25.39
2019-05-20T15:59:58.343Z,25.32
2019-05-20T16:03:05.197Z,25.30
2019-05-20T16:06:11.605Z,25.14
2019-05-20T16:09:19.068Z,25.15
2019-05-20T16:12:25.713Z,25.05
2019-05-20T16:15:32.317Z,24.98
2019-05-20T16:18:39.044Z,24.91
2019-05-20T16:21:47.843Z,24.61
2019-05-20T16:24:53.874Z,24.62
2019-05-20T16:28:00.260Z,24.55
2019-05-20T16:31:06.848Z,24.51
2019-05-20T16:34:13.308Z,24.41
2019-05-20T16:37:19.813Z,24.31
2019-05-20T16:40:26.534Z,24.24
2019-05-20T16:43:33.163Z,24.22
2019-05-20T16:46:39.694Z,23.99
2019-05-20T16:49:46.370Z,23.99
2019-05-20T16:52:52.907Z,23.83
2019-05-20T16:55:59.461Z,23.70
2019-05-20T16:59:05.877Z,23.54
2019-05-20T17:02:12.406Z,23.42
2019-05-20T17:05:18.988Z,23.28
2019-05-20T17:08:25.455Z,23.16
2019-05-20T17:11:32.985Z,23.04
2019-05-20T17:14:39.594Z,22.84
2019-05-20T17:17:45.962Z,22.77
2019-05-20T17:20:52.482Z,22.63
2019-05-20T17:23:59.003Z,22.52
2019-05-20T17:27:05.455Z,22.45
2019-05-20T17:30:12.304Z,22.36
2019-05-20T17:33:18.949Z,22.22
2019-05-20T17:36:25.442Z,22.12
2019-05-20T17:39:32.043Z,21.96
2019-05-20T17:42:38.747Z,21.85
2019-05-20T17:45:45.726Z,21.69
2019-05-20T17:48:52.198Z,21.69
2019-05-20T17:51:58.767Z,21.56
2019-05-20T17:55:05.298Z,21.49
2019-05-20T17:58:11.823Z,21.47
2019-05-20T18:01:18.379Z,21.32
2019-05-20T18:04:25.225Z,21.27
2019-05-20T18:07:33.334Z,21.24
2019-05-20T18:10:39.707Z,21.17
2019-05-20T18:13:53.078Z,21.06
2019-05-20T18:16:59.665Z,21.00
2019-05-20T18:20:08.075Z,20.91
2019-05-20T18:23:14.609Z,20.81
2019-05-20T18:26:21.092Z,20.77
2019-05-20T18:29:30.435Z,20.67
2019-05-20T18:32:38.733Z,20.62
2019-05-20T18:35:46.619Z,20.49
2019-05-20T18:38:53.084Z,20.38
2019-05-20T18:42:00.883Z,20.30
2019-05-20T18:45:10.610Z,20.25
2019-05-20T18:48:18.149Z,20.19
2019-05-20T18:51:27.682Z,20.10
2019-05-20T18:54:34.344Z,20.04
2019-05-20T18:57:42.872Z,20.00
2019-05-20T19:00:49.614Z,19.93
2019-05-20T19:03:56.185Z,19.89
2019-05-20T19:07:02.721Z,19.81
2019-05-20T19:10:09.389Z,19.76
2019-05-20T19:13:15.956Z,19.65
2019-05-20T19:16:22.414Z,19.59
2019-05-20T19:19:29.056Z,19.52
2019-05-20T19:22:35.571Z,19.41
2019-05-20T19:25:43.972Z,19.39
2019-05-20T19:28:50.274Z,19.35
2019-05-20T19:32:01.791Z,19.35
2019-05-20T19:35:05.017Z,19.26
2019-05-20T19:38:13.464Z,19.17
2019-05-20T19:41:20.011Z,19.09
2019-05-20T19:44:27.380Z,19.07
2019-05-20T19:47:33.948Z,19.05
2019-05-20T19:50:40.751Z,19.00
2019-05-20T19:53:47.202Z,18.83
2019-05-20T19:56:54.243Z,18.69
2019-05-20T20:00:00.695Z,18.71
2019-05-20T20:03:07.212Z,18.70
2019-05-20T20:06:14.407Z,18.51
2019-05-20T20:09:23.313Z,18.45
2019-05-20T20:12:31.492Z,18.44
2019-05-20T20:15:40.792Z,18.37
2019-05-20T20:18:47.650Z,18.34
2019-05-20T20:21:54.109Z,18.25
2019-05-20T20:25:00.566Z,18.19
2019-05-20T20:28:07.059Z,18.27
2019-05-20T20:31:13.480Z,18.22
2019-05-20T20:34:19.948Z,18.24
2019-05-20T20:37:26.423Z,18.17
2019-05-20T20:40:32.985Z,18.19
2019-05-20T20:43:39.428Z,18.10
2019-05-20T20:46:46.147Z,17.96
2019-05-20T20:49:52.825Z,17.96
2019-05-20T20:52:59.440Z,17.85
2019-05-20T20:56:05.962Z,17.78
2019-05-20T20:59:12.444Z,17.71
2019-05-20T21:02:18.889Z,17.56
2019-05-20T21:05:25.337Z,17.51
2019-05-20T21:08:32.837Z,17.44
2019-05-20T21:11:41.415Z,17.34
2019-05-20T21:14:47.946Z,17.34
2019-05-20T21:17:54.497Z,17.38
2019-05-20T21:21:01.019Z,17.32
2019-05-20T21:24:07.461Z,17.19
2019-05-20T21:27:13.895Z,17.15
2019-05-20T21:30:20.334Z,17.15
2019-05-20T21:33:26.751Z,17.13
2019-05-20T21:36:46.551Z,17.09
2019-05-20T21:39:41.331Z,17.03
2019-05-20T21:42:47.925Z,16.91
2019-05-20T21:45:54.358Z,16.80
2019-05-20T21:49:01.074Z,16.80
2019-05-20T21:52:07.943Z,16.77
2019-05-20T21:55:14.610Z,16.78
2019-05-20T21:58:20.978Z,16.72
2019-05-20T22:01:27.478Z,16.65
2019-05-20T22:04:33.961Z,16.55
2019-05-20T22:07:40.617Z,16.37
2019-05-20T22:10:47.101Z,16.36
2019-05-20T22:13:53.753Z,16.37
2019-05-20T22:17:00.245Z,16.33
2019-05-20T22:20:07.065Z,16.26
2019-05-20T22:23:31.356Z,16.24
2019-05-20T22:26:37.990Z,16.14
2019-05-20T22:29:44.409Z,16.18
2019-05-20T22:32:50.905Z,16.14
2019-05-20T22:35:57.263Z,16.08
2019-05-20T22:39:05.397Z,16.03
2019-05-20T22:42:11.835Z,16.00
2019-05-20T22:45:18.540Z,15.91
2019-05-20T22:48:24.881Z,15.83
2019-05-20T22:51:31.452Z,15.65
2019-05-20T22:54:38.297Z,15.65
2019-05-20T22:57:45.455Z,15.61
2019-05-20T23:00:51.927Z,15.71
2019-05-20T23:03:58.511Z,15.50
2019-05-20T23:07:04.944Z,15.48
2019-05-20T23:10:11.531Z,15.55
2019-05-20T23:13:17.802Z,15.64
2019-05-20T23:16:24.602Z,15.49
2019-05-20T23:19:31.023Z,15.44
2019-05-20T23:22:37.425Z,15.46
2019-05-20T23:25:43.880Z,15.39
2019-05-20T23:28:50.301Z,15.39
2019-05-20T23:31:56.783Z,15.34
2019-05-20T23:35:03.362Z,15.32
2019-05-20T23:38:09.832Z,15.26
2019-05-20T23:41:16.442Z,15.24
2019-05-20T23:44:22.800Z,15.24
2019-05-20T23:47:30.057Z,15.18
2019-05-20T23:50:36.404Z,15.07
2019-05-20T23:53:43.050Z,15.01
2019-05-20T23:56:49.853Z,15.06
2019-05-20T23:59:56.492Z,15.02
